Time;durP1;ratioP1;P1;durP2;ratioP2;P2;SDS_P1;SDS_P2;PMS_P1;PMS_P2;Temp;Humidity;BMP_temperature;BMP_pressure;BME280_temperature;BME280_humidity;BME280_pressure;Samples;Min_cycle;Max_cycle;Signal;HPM_P1;HPM_P2
2023/08/07 00:02:25;;;;;;;7.97;5.70;;;;;;;24.08;61.37;99222.63;4935420;28;20050;-65
2023/08/07 00:04:54;;;;;;;7.15;5.10;;;;;;;24.09;60.99;99227.03;4937860;28;20051;-65
2023/08/07 00:07:24;;;;;;;7.13;5.28;;;;;;;24.14;60.68;99227.28;4936975;28;20063;-65
2023/08/07 00:09:50;;;;;;;11.38;4.93;;;;;;;24.08;60.88;99228.06;4936565;28;20055;-65
2023/08/07 00:12:17;;;;;;;18.48;6.28;;;;;;;24.03;61.15;99230.59;4935226;28;20129;-64
2023/08/07 00:14:43;;;;;;;6.47;4.88;;;;;;;23.91;61.20;99225.94;4935586;28;20046;-67
2023/08/07 00:17:13;;;;;;;8.20;5.90;;;;;;;23.97;60.75;99242.28;4934165;28;20054;-69
2023/08/07 00:19:38;;;;;;;7.78;5.40;;;;;;;24.09;60.44;99229.75;4937746;28;20410;-69
2023/08/07 00:22:03;;;;;;;11.85;5.47;;;;;;;24.01;60.62;99224.50;4936146;28;20047;-68
2023/08/07 00:24:29;;;;;;;7.57;5.30;;;;;;;23.98;60.59;99226.78;4937016;28;20378;-67
2023/08/07 00:26:55;;;;;;;9.85;5.40;;;;;;;23.88;60.81;99227.19;4937163;28;20050;-67
2023/08/07 00:29:22;;;;;;;10.13;5.50;;;;;;;23.81;60.10;99220.91;4937553;28;20504;-66
2023/08/07 00:31:50;;;;;;;10.80;5.68;;;;;;;23.97;60.73;99220.50;4927846;28;20782;-68
2023/08/07 00:34:20;;;;;;;10.45;5.13;;;;;;;23.98;60.94;99224.06;4937193;28;20407;-67
2023/08/07 00:36:49;;;;;;;9.10;5.80;;;;;;;23.97;61.40;99227.84;4935783;28;20089;-65
2023/08/07 00:39:19;;;;;;;8.65;5.75;;;;;;;24.02;61.42;99237.09;4937009;28;20057;-66
2023/08/07 00:41:48;;;;;;;9.57;4.90;;;;;;;23.97;61.54;99214.22;4932440;28;20081;-66
2023/08/07 00:44:16;;;;;;;7.13;5.60;;;;;;;23.88;61.60;99217.16;4935914;28;20098;-66
2023/08/07 00:46:45;;;;;;;12.15;6.00;;;;;;;23.92;61.52;99241.25;4935731;28;20058;-66
2023/08/07 00:49:15;;;;;;;6.28;5.03;;;;;;;23.94;61.42;99222.78;4945992;28;20057;-66
2023/08/07 00:52:08;;;;;;;7.50;5.43;;;;;;;23.89;61.66;99221.53;4935202;28;20043;-66
2023/08/07 00:54:33;;;;;;;6.63;5.40;;;;;;;23.68;61.76;99229.03;4937968;28;20043;-67
2023/08/07 00:57:10;;;;;;;9.15;5.88;;;;;;;23.58;62.74;99253.06;4919795;28;20050;-67
2023/08/07 00:59:35;;;;;;;6.57;5.22;;;;;;;23.48;63.03;99216.13;4936126;28;20054;-67
2023/08/07 01:02:04;;;;;;;8.93;5.82;;;;;;;23.54;62.94;99225.41;4934482;28;20051;-68
2023/08/07 01:04:31;;;;;;;12.25;6.53;;;;;;;23.53;63.02;99219.13;4936823;28;20494;-65
2023/08/07 01:06:58;;;;;;;9.35;6.47;;;;;;;23.47;63.22;99206.31;4933725;28;20047;-64
2023/08/07 01:09:27;;;;;;;6.80;5.68;;;;;;;23.49;62.95;99211.53;4935438;28;20046;-64
2023/08/07 01:12:15;;;;;;;8.25;5.90;;;;;;;23.51;63.66;99209.47;4934544;28;20043;-65
2023/08/07 01:15:22;;;;;;;9.82;6.10;;;;;;;23.62;63.15;99211.59;4933966;28;20038;-64
2023/08/07 01:17:48;;;;;;;11.50;6.00;;;;;;;23.35;63.50;99210.66;4861002;29;20428;-66
2023/08/07 01:20:20;;;;;;;11.57;5.38;;;;;;;23.45;63.26;99204.81;4877509;29;20407;-65
2023/08/07 01:22:47;;;;;;;8.20;6.03;;;;;;;23.42;63.22;99206.06;4877202;29;20055;-64
2023/08/07 01:25:20;;;;;;;13.00;6.07;;;;;;;23.27;63.56;99197.19;4877380;29;20311;-70
2023/08/07 01:28:25;;;;;;;9.88;6.13;;;;;;;23.34;63.95;99198.09;4877054;29;20044;-67
2023/08/07 01:30:57;;;;;;;10.00;5.88;;;;;;;23.22;64.39;99196.97;4846494;29;20064;-74
2023/08/07 01:33:32;;;;;;;11.25;6.57;;;;;;;23.15;64.48;99198.78;4862289;29;20067;-72
2023/08/07 01:36:01;;;;;;;12.05;6.00;;;;;;;23.10;64.82;99201.28;4861360;29;20055;-71
2023/08/07 01:38:29;;;;;;;15.38;6.53;;;;;;;23.00;65.26;99200.81;4846071;29;20079;-71
2023/08/07 01:41:02;;;;;;;10.15;5.93;;;;;;;23.01;65.18;99197.06;4877237;29;20044;-71
2023/08/07 01:43:28;;;;;;;8.05;6.32;;;;;;;22.98;65.38;99167.56;4859143;29;20063;-71
2023/08/07 01:45:55;;;;;;;7.45;5.95;;;;;;;22.92;65.44;99199.09;4877106;29;20076;-71
2023/08/07 01:48:23;;;;;;;11.48;6.85;;;;;;;22.82;65.77;99193.16;4861359;29;20407;-71
2023/08/07 01:50:49;;;;;;;11.20;6.20;;;;;;;22.77;66.12;99190.22;4881484;29;20044;-67
2023/08/07 01:53:15;;;;;;;13.30;6.63;;;;;;;22.76;66.13;99194.81;4931822;28;20046;-67
2023/08/07 01:55:41;;;;;;;7.57;6.53;;;;;;;22.76;66.23;99202.97;4933043;28;20042;-70
2023/08/07 01:58:08;;;;;;;10.48;6.80;;;;;;;22.80;65.96;99201.50;4935686;28;20509;-68
2023/08/07 02:00:37;;;;;;;8.38;5.97;;;;;;;22.77;66.19;99191.06;4934471;28;20057;-68
2023/08/07 02:03:04;;;;;;;11.95;6.03;;;;;;;22.79;65.82;99199.03;4933418;28;20054;-67
2023/08/07 02:05:30;;;;;;;12.70;6.15;;;;;;;22.75;65.95;99195.84;4917821;28;20055;-68
2023/08/07 02:07:56;;;;;;;11.32;6.38;;;;;;;22.77;66.12;99192.94;4936547;28;20521;-67
2023/08/07 02:10:22;;;;;;;9.23;5.82;;;;;;;22.81;65.81;99191.47;4936229;28;20041;-67
2023/08/07 02:12:48;;;;;;;12.05;6.45;;;;;;;22.78;65.93;99187.31;4918431;28;20057;-67
2023/08/07 02:15:14;;;;;;;6.40;5.57;;;;;;;22.77;66.06;99185.63;4903276;28;20053;-68
2023/08/07 02:17:41;;;;;;;8.75;6.10;;;;;;;22.82;66.00;99193.16;4949110;28;20034;-68
2023/08/07 02:22:58;;;;;;;9.38;5.47;;;;;;;22.85;65.57;99187.34;4936384;28;20516;-67
2023/08/07 02:25:26;;;;;;;11.68;7.43;;;;;;;22.88;65.60;99186.09;4934292;28;20455;-67
2023/08/07 02:27:54;;;;;;;8.85;6.15;;;;;;;22.89;65.62;99182.34;4935188;28;20047;-67
2023/08/07 02:30:20;;;;;;;9.98;5.93;;;;;;;22.92;65.57;99192.81;4935409;28;20034;-67
2023/08/07 02:32:46;;;;;;;9.15;5.65;;;;;;;22.89;65.97;99187.78;4936688;28;20066;-67
2023/08/07 02:35:15;;;;;;;10.43;6.00;;;;;;;22.84;66.30;99210.13;4936608;28;20054;-73
2023/08/07 02:37:42;;;;;;;8.93;5.93;;;;;;;22.86;66.05;99196.34;4934887;28;20042;-73
2023/08/07 02:40:10;;;;;;;10.68;5.88;;;;;;;22.90;66.06;99195.75;4936517;28;20051;-71
2023/08/07 02:42:37;;;;;;;8.88;6.20;;;;;;;22.90;66.09;99205.78;4936542;28;20544;-72
2023/08/07 02:45:04;;;;;;;12.63;6.57;;;;;;;23.02;65.65;99182.44;4903125;28;20062;-72
2023/08/07 02:47:31;;;;;;;8.88;5.63;;;;;;;22.99;65.47;99189.09;4935347;28;20506;-72
2023/08/07 02:50:01;;;;;;;9.68;6.22;;;;;;;23.06;65.31;99189.97;4935025;28;20058;-74
2023/08/07 02:52:26;;;;;;;10.90;5.88;;;;;;;23.16;65.46;99195.88;4934759;28;20057;-73
2023/08/07 02:54:56;;;;;;;11.32;7.05;;;;;;;23.16;65.16;99185.00;4933408;28;20070;-73
2023/08/07 02:57:22;;;;;;;13.43;6.47;;;;;;;23.16;64.96;99179.56;4935140;28;20050;-72
2023/08/07 02:59:49;;;;;;;9.75;6.25;;;;;;;23.26;64.50;99184.63;4936216;28;20537;-71
2023/08/07 03:02:15;;;;;;;11.60;6.50;;;;;;;23.24;64.57;99189.47;4934563;28;20506;-73
2023/08/07 03:05:09;;;;;;;9.80;6.30;;;;;;;23.37;63.97;99181.31;4936788;28;20054;-73
2023/08/07 03:07:59;;;;;;;11.23;5.75;;;;;;;23.29;63.87;99183.41;4951387;28;20047;-73
2023/08/07 03:10:24;;;;;;;9.82;6.80;;;;;;;23.37;63.89;99181.31;4947401;28;20050;-73
2023/08/07 03:12:52;;;;;;;16.65;7.70;;;;;;;23.38;63.83;99180.28;4940797;28;20502;-73
2023/08/07 03:15:21;;;;;;;9.40;5.88;;;;;;;23.44;63.58;99193.09;4937482;28;20073;-72
2023/08/07 03:17:47;;;;;;;9.18;5.70;;;;;;;23.48;62.88;99182.63;4936282;28;20478;-73
2023/08/07 03:23:10;;;;;;;12.93;6.03;;;;;;;23.65;62.15;99188.59;4934885;28;20046;-73
2023/08/07 03:26:12;;;;;;;8.85;6.13;;;;;;;23.65;62.17;99189.44;4935478;28;20051;-73
2023/08/07 03:28:41;;;;;;;10.05;6.18;;;;;;;23.68;62.37;99166.41;4933317;28;20497;-72
2023/08/07 03:31:06;;;;;;;11.65;6.68;;;;;;;23.65;61.56;99184.00;4934743;28;20046;-72
2023/08/07 03:33:36;;;;;;;11.02;6.45;;;;;;;23.77;61.83;99181.50;4935079;28;20051;-72
2023/08/07 03:36:02;;;;;;;11.48;6.85;;;;;;;23.81;61.77;99177.34;4917554;28;20061;-73
2023/08/07 03:38:29;;;;;;;10.30;6.05;;;;;;;23.80;60.25;99176.50;4936517;28;20043;-73
2023/08/07 03:40:58;;;;;;;11.38;6.25;;;;;;;23.97;60.83;99184.28;4937222;28;20051;-74
2023/08/07 03:43:26;;;;;;;11.25;6.38;;;;;;;24.10;60.65;99201.47;4937514;28;20046;-73
2023/08/07 03:45:56;;;;;;;11.90;5.93;;;;;;;24.27;60.51;99221.00;4937193;28;20042;-73
2023/08/07 03:48:22;;;;;;;9.30;6.45;;;;;;;24.29;60.01;99188.94;4936793;28;20050;-74
2023/08/07 03:50:50;;;;;;;10.68;5.55;;;;;;;24.45;59.04;99183.09;4936942;28;20057;-73
2023/08/07 03:53:21;;;;;;;9.10;6.20;;;;;;;24.47;59.47;99188.34;4938421;28;20050;-72
2023/08/07 03:55:51;;;;;;;13.10;5.97;;;;;;;24.43;59.31;99176.16;4936618;28;20057;-73
2023/08/07 03:58:23;;;;;;;9.75;5.78;;;;;;;24.54;59.11;99173.66;4937092;28;20046;-74
2023/08/07 04:00:51;;;;;;;10.70;6.03;;;;;;;24.66;58.77;99170.28;4936663;28;20251;-73
2023/08/07 04:03:21;;;;;;;16.02;6.70;;;;;;;24.77;58.38;99175.09;4920736;28;20050;-72
2023/08/07 04:05:50;;;;;;;11.57;5.85;;;;;;;24.78;57.90;99180.34;4937840;28;20498;-73
2023/08/07 04:08:24;;;;;;;11.75;5.22;;;;;;;24.88;57.71;99186.19;4952729;28;20054;-72
2023/08/07 04:11:05;;;;;;;10.02;5.68;;;;;;;25.08;57.87;99168.97;4937992;28;20053;-72
2023/08/07 04:13:32;;;;;;;6.95;5.30;;;;;;;25.00;56.70;99170.03;4938684;28;20406;-73
2023/08/07 04:15:58;;;;;;;10.23;4.93;;;;;;;25.07;56.89;99170.00;4954904;28;20042;-73
2023/08/07 04:18:25;;;;;;;11.50;5.45;;;;;;;25.23;55.29;99173.13;4956842;28;20042;-73
2023/08/07 04:20:56;;;;;;;9.55;5.40;;;;;;;25.49;56.18;99176.81;4937073;28;20057;-72
2023/08/07 04:23:22;;;;;;;7.93;5.90;;;;;;;25.62;55.49;99172.13;4937738;28;20042;-73
2023/08/07 04:25:48;;;;;;;9.13;5.28;;;;;;;25.73;55.51;99161.59;4947558;28;20059;-74
2023/08/07 04:28:13;;;;;;;7.97;5.15;;;;;;;25.93;54.69;99160.41;4929262;28;20046;-74
2023/08/07 04:30:39;;;;;;;7.13;5.10;;;;;;;26.06;54.62;99167.69;4937279;28;20054;-75
2023/08/07 04:33:05;;;;;;;8.13;4.85;;;;;;;26.10;54.16;99173.53;4935853;28;20050;-74
2023/08/07 04:35:34;;;;;;;9.55;5.25;;;;;;;26.24;54.69;99169.66;4937303;28;20043;-73
2023/08/07 04:38:02;;;;;;;6.43;4.75;;;;;;;26.50;53.90;99195.97;4935887;28;20063;-72
2023/08/07 04:40:53;;;;;;;8.15;5.55;;;;;;;26.79;53.01;99170.66;4935152;28;20050;-71
2023/08/07 04:43:22;;;;;;;7.10;5.10;;;;;;;26.95;52.70;99164.66;4937268;28;20054;-71
2023/08/07 04:48:41;;;;;;;7.35;5.30;;;;;;;27.34;51.38;99159.75;4936823;28;20426;-73
2023/08/07 04:51:07;;;;;;;7.15;5.07;;;;;;;27.15;51.61;99158.09;4936694;28;20138;-72
2023/08/07 04:53:32;;;;;;;9.30;4.57;;;;;;;27.38;50.65;99159.09;4936880;28;20130;-71
2023/08/07 04:55:59;;;;;;;7.88;5.18;;;;;;;27.22;51.33;99156.94;4935243;28;20498;-71
2023/08/07 04:58:28;;;;;;;6.25;5.15;;;;;;;27.27;50.88;99153.53;4936790;28;20486;-72
2023/08/07 05:00:56;;;;;;;8.10;4.55;;;;;;;27.38;50.33;99152.78;4936539;28;20050;-73
2023/08/07 05:03:24;;;;;;;9.73;4.53;;;;;;;27.50;50.81;99153.66;4936844;28;20046;-72
2023/08/07 05:06:02;;;;;;;7.18;5.15;;;;;;;27.79;50.20;99146.53;4936776;28;20053;-72
2023/08/07 05:08:28;;;;;;;10.13;4.90;;;;;;;27.86;49.10;99152.78;4936700;28;20047;-71
2023/08/07 05:10:56;;;;;;;8.10;4.72;;;;;;;27.85;48.65;99145.63;4935186;28;20046;-74
2023/08/07 05:13:22;;;;;;;7.38;4.88;;;;;;;27.91;48.90;99149.31;4936764;28;20043;-73
2023/08/07 05:15:49;;;;;;;9.00;4.18;;;;;;;27.94;48.42;99151.59;4936581;28;20049;-72
2023/08/07 05:18:19;;;;;;;8.50;5.00;;;;;;;27.99;47.80;99151.75;4934570;28;20055;-73
2023/08/07 05:20:48;;;;;;;5.93;4.93;;;;;;;28.05;47.69;99146.16;4934646;28;20059;-73
2023/08/07 05:23:13;;;;;;;8.45;4.63;;;;;;;28.22;47.76;99142.78;4936159;28;20397;-74
2023/08/07 05:25:41;;;;;;;6.43;4.57;;;;;;;28.53;47.64;99137.81;4934530;28;20062;-67
2023/08/07 05:28:06;;;;;;;7.10;4.47;;;;;;;28.72;47.00;99134.94;4934581;28;20514;-67
2023/08/07 05:30:57;;;;;;;7.90;4.93;;;;;;;29.05;47.10;99137.91;4936355;28;20054;-66
2023/08/07 05:33:28;;;;;;;6.72;4.57;;;;;;;29.16;45.40;99131.56;4934873;28;20039;-71
2023/08/07 05:35:57;;;;;;;8.32;4.25;;;;;;;29.25;44.68;99138.34;4936135;28;20050;-67
2023/08/07 05:38:48;;;;;;;9.35;4.68;;;;;;;29.00;44.49;99129.59;4935044;28;20042;-68
2023/08/07 05:41:18;;;;;;;9.18;5.35;;;;;;;28.89;44.63;99124.94;4937004;28;20038;-67
2023/08/07 05:43:46;;;;;;;5.70;4.50;;;;;;;29.09;44.48;99122.63;4937080;28;20504;-68
2023/08/07 05:46:36;;;;;;;10.30;4.28;;;;;;;29.44;44.11;99132.72;4937044;28;20054;-68
2023/08/07 05:49:02;;;;;;;5.97;4.35;;;;;;;29.51;44.27;99112.25;4937167;28;20524;-67
2023/08/07 05:51:53;;;;;;;9.55;5.20;;;;;;;30.29;43.39;99124.41;4937114;28;20494;-67
2023/08/07 05:54:19;;;;;;;6.50;3.85;;;;;;;30.50;42.08;99120.91;4937085;28;20038;-68
2023/08/07 05:56:45;;;;;;;10.77;5.13;;;;;;;30.57;41.72;99113.34;4935922;28;20050;-67
2023/08/07 05:59:10;;;;;;;6.50;4.40;;;;;;;30.77;41.50;99120.22;4936674;28;20039;-69
2023/08/07 06:01:36;;;;;;;7.63;4.50;;;;;;;30.73;40.67;99114.38;4936250;28;20049;-67
2023/08/07 06:04:05;;;;;;;11.27;4.50;;;;;;;30.70;40.98;99103.09;4937299;28;20046;-67
2023/08/07 06:06:39;;;;;;;9.77;4.60;;;;;;;30.89;40.52;99101.69;4936895;28;20054;-67
2023/08/07 06:09:33;;;;;;;7.82;4.32;;;;;;;31.66;39.53;99107.94;4935446;28;20054;-69
2023/08/07 06:11:58;;;;;;;8.43;5.20;;;;;;;32.29;37.89;99111.00;4935770;28;20050;-68
2023/08/07 06:14:27;;;;;;;8.45;4.20;;;;;;;31.99;37.64;99104.13;4936870;28;20039;-68
2023/08/07 06:16:57;;;;;;;9.63;4.60;;;;;;;31.86;37.71;99111.97;4936977;28;20044;-68
2023/08/07 06:19:27;;;;;;;9.60;5.05;;;;;;;32.31;37.92;99109.66;4935439;28;20050;-67
2023/08/07 06:21:52;;;;;;;10.75;4.97;;;;;;;33.14;36.68;99093.34;4935056;28;20061;-68
2023/08/07 06:24:17;;;;;;;8.95;4.80;;;;;;;33.76;35.96;99053.78;4936672;28;20050;-68
2023/08/07 06:29:32;;;;;;;8.48;4.30;;;;;;;35.45;33.39;99054.00;4934751;28;20050;-69
2023/08/07 06:31:59;;;;;;;9.45;4.30;;;;;;;35.29;33.22;99050.50;4936677;28;20053;-67
2023/08/07 06:34:28;;;;;;;9.05;4.63;;;;;;;35.98;32.08;99077.28;4936511;28;20054;-68
2023/08/07 06:36:57;;;;;;;6.60;4.95;;;;;;;35.97;31.58;99099.75;4936302;28;20038;-66
2023/08/07 06:39:25;;;;;;;7.88;4.13;;;;;;;36.25;31.08;99095.38;4936260;28;20042;-69
2023/08/07 06:41:54;;;;;;;10.05;5.32;;;;;;;36.03;31.07;99104.13;4939099;28;20097;-68
2023/08/07 06:44:31;;;;;;;9.77;4.45;;;;;;;35.92;30.81;99097.00;4935506;28;20073;-68
2023/08/07 06:46:58;;;;;;;8.15;5.15;;;;;;;35.44;31.86;99135.53;4935457;28;20453;-69
2023/08/07 06:49:31;;;;;;;7.60;4.60;;;;;;;35.25;31.77;99082.69;4936383;28;20051;-68
2023/08/07 06:52:00;;;;;;;7.57;4.95;;;;;;;35.95;31.84;99104.75;4935917;28;20042;-66
2023/08/07 06:54:30;;;;;;;6.47;4.95;;;;;;;36.31;30.94;99074.81;4934771;28;20050;-66
2023/08/07 06:56:59;;;;;;;5.07;4.47;;;;;;;35.80;30.69;99093.75;4935248;28;20039;-68
2023/08/07 06:59:24;;;;;;;12.65;5.00;;;;;;;35.78;31.13;99096.81;4936300;28;20045;-66
2023/08/07 07:01:51;;;;;;;9.40;5.40;;;;;;;36.03;31.01;99087.50;4936221;28;20042;-68
2023/08/07 07:04:21;;;;;;;8.55;4.60;;;;;;;36.52;30.97;99086.53;4935233;28;20055;-68
2023/08/07 07:06:48;;;;;;;7.28;4.10;;;;;;;37.66;30.04;99039.34;4936231;28;20042;-69
2023/08/07 07:09:17;;;;;;;7.97;4.80;;;;;;;37.48;30.01;99035.38;4934700;28;20484;-67
2023/08/07 07:12:07;;;;;;;8.90;5.03;;;;;;;37.25;29.53;99020.41;4939144;28;20054;-67
2023/08/07 07:14:36;;;;;;;5.60;4.43;;;;;;;37.71;29.42;99037.28;4942646;28;20058;-68
2023/08/07 07:17:01;;;;;;;14.73;4.95;;;;;;;37.91;28.36;99033.38;4940062;28;20058;-67
2023/08/07 07:19:30;;;;;;;6.97;4.55;;;;;;;37.44;28.29;99034.34;4940163;28;20047;-68
2023/08/07 07:21:55;;;;;;;16.98;6.13;;;;;;;38.09;28.56;99018.59;4939840;28;20049;-67
2023/08/07 07:24:22;;;;;;;5.97;4.65;;;;;;;38.86;27.34;99029.16;4939802;28;20051;-67
2023/08/07 07:26:56;;;;;;;5.40;4.75;;;;;;;38.45;27.32;99021.56;4940143;28;20047;-68
2023/08/07 07:29:24;;;;;;;20.13;5.38;;;;;;;38.18;27.68;99027.06;4938038;28;20054;-67
2023/08/07 07:31:54;;;;;;;13.85;5.32;;;;;;;39.32;26.93;99019.81;4939092;28;20391;-68
2023/08/07 07:34:45;;;;;;;6.93;5.15;;;;;;;40.39;25.40;99027.31;4939615;28;20058;-68
2023/08/07 07:37:36;;;;;;;6.10;5.32;;;;;;;40.31;25.30;99030.84;4938713;28;20050;-68
2023/08/07 07:40:05;;;;;;;11.13;5.88;;;;;;;39.57;25.60;99019.28;4939548;28;20050;-69
2023/08/07 07:42:31;;;;;;;6.03;5.43;;;;;;;39.51;25.91;99026.09;4921606;28;20051;-69
2023/08/07 07:44:57;;;;;;;8.38;5.40;;;;;;;39.48;26.43;99016.41;4938126;28;20497;-67
2023/08/07 07:47:23;;;;;;;7.45;5.75;;;;;;;39.75;26.12;99015.47;4939373;28;20049;-68
2023/08/07 07:49:48;;;;;;;8.75;5.38;;;;;;;39.71;25.81;99020.06;4939031;28;20054;-68
2023/08/07 07:52:14;;;;;;;9.45;5.22;;;;;;;39.44;25.68;99009.81;4939452;28;20049;-68
2023/08/07 07:54:43;;;;;;;11.45;5.72;;;;;;;39.55;25.70;99010.38;4937729;28;20061;-68
2023/08/07 07:57:34;;;;;;;7.70;5.10;;;;;;;40.19;24.55;99025.81;4939280;28;20509;-68
2023/08/07 08:00:00;;;;;;;10.35;5.43;;;;;;;39.33;25.31;99002.78;4938018;28;20525;-68
2023/08/07 08:02:26;;;;;;;5.15;4.70;;;;;;;39.54;25.46;99005.94;4938727;28;20417;-68
2023/08/07 08:04:52;;;;;;;10.18;5.35;;;;;;;38.79;25.94;98993.34;4939117;28;20055;-69
2023/08/07 08:07:17;;;;;;;10.90;5.68;;;;;;;39.33;25.23;99018.69;4937959;28;20512;-69
2023/08/07 08:09:44;;;;;;;11.48;5.30;;;;;;;38.96;25.84;99015.00;4943530;28;20050;-67
2023/08/07 08:12:11;;;;;;;8.48;5.57;;;;;;;38.74;25.94;98995.41;4946424;28;20042;-67
2023/08/07 08:14:37;;;;;;;9.25;5.53;;;;;;;38.93;25.75;99037.13;4946456;28;20494;-66
2023/08/07 08:17:03;;;;;;;7.85;5.28;;;;;;;39.04;25.35;99021.84;4940105;28;20054;-67
2023/08/07 08:19:28;;;;;;;7.43;4.82;;;;;;;38.96;26.48;99031.72;4939101;28;20493;-69
2023/08/07 08:21:53;;;;;;;6.63;5.40;;;;;;;39.65;25.21;98992.56;4939027;28;20055;-69
2023/08/07 08:24:21;;;;;;;11.15;5.15;;;;;;;40.51;24.37;99004.34;4937341;28;20047;-69
2023/08/07 08:26:48;;;;;;;12.68;5.32;;;;;;;40.70;23.42;99046.03;4936706;28;20442;-69
2023/08/07 08:29:16;;;;;;;11.85;5.47;;;;;;;39.59;24.55;99036.53;4938810;28;20053;-68
2023/08/07 08:31:41;;;;;;;7.60;5.65;;;;;;;39.57;24.84;99033.22;4937391;28;20053;-67
2023/08/07 08:34:08;;;;;;;7.18;5.20;;;;;;;39.55;24.56;99043.88;4938685;28;20058;-69
2023/08/07 08:39:24;;;;;;;11.82;5.43;;;;;;;39.31;24.80;99009.81;4938149;28;20043;-69
2023/08/07 08:41:54;;;;;;;7.97;4.97;;;;;;;39.72;25.29;98974.28;4937137;28;20047;-69
2023/08/07 08:44:22;;;;;;;8.65;5.07;;;;;;;40.85;23.87;98972.94;4937131;28;20046;-68
2023/08/07 08:46:53;;;;;;;11.48;5.20;;;;;;;41.46;23.00;98976.66;4936556;28;20054;-69
2023/08/07 08:49:28;;;;;;;7.45;6.15;;;;;;;41.33;23.18;98996.06;4936399;28;20054;-69
2023/08/07 08:51:58;;;;;;;8.77;5.40;;;;;;;41.12;22.69;99003.44;4938553;28;20050;-69
2023/08/07 08:54:27;;;;;;;8.05;5.38;;;;;;;40.32;23.54;99003.75;4940548;28;20050;-69
2023/08/07 08:57:18;;;;;;;9.48;5.97;;;;;;;41.13;23.31;98953.94;4938164;28;20053;-69
2023/08/07 08:59:45;;;;;;;7.65;5.50;;;;;;;41.12;23.44;98955.91;4937939;28;20053;-69
2023/08/07 09:02:11;;;;;;;13.30;5.93;;;;;;;41.91;22.84;98949.97;4920622;28;20402;-67
2023/08/07 09:04:37;;;;;;;6.20;5.70;;;;;;;42.53;21.68;98996.31;4938000;28;20485;-67
2023/08/07 09:07:10;;;;;;;8.68;5.85;;;;;;;41.50;22.12;98975.69;4937863;28;20047;-66
2023/08/07 09:09:36;;;;;;;7.68;6.03;;;;;;;41.20;22.62;98999.03;4937601;28;20039;-68
2023/08/07 09:12:08;;;;;;;10.35;6.72;;;;;;;41.06;22.80;98990.75;4937469;28;20046;-66
2023/08/07 09:14:41;;;;;;;8.52;5.72;;;;;;;41.62;22.68;98947.88;4937616;28;20057;-67
2023/08/07 09:17:09;;;;;;;14.73;6.40;;;;;;;41.83;22.42;98983.59;4936751;28;20058;-67
2023/08/07 09:19:39;;;;;;;11.15;6.50;;;;;;;42.17;21.54;98971.50;4937766;28;20038;-67
2023/08/07 09:22:06;;;;;;;11.50;6.03;;;;;;;41.83;21.75;98970.41;4936652;28;20042;-67
2023/08/07 09:24:38;;;;;;;6.90;6.20;;;;;;;41.60;22.18;98954.97;4935773;28;20500;-66
2023/08/07 09:27:09;;;;;;;6.07;5.53;;;;;;;42.03;22.21;98936.13;4937677;28;20580;-66
2023/08/07 09:29:35;;;;;;;7.57;6.10;;;;;;;42.64;21.87;98963.94;4937331;28;20498;-68
2023/08/07 09:32:13;;;;;;;14.05;5.95;;;;;;;44.16;20.84;98969.06;4937382;28;20053;-67
2023/08/07 09:34:42;;;;;;;12.27;6.60;;;;;;;43.83;20.48;98977.47;4935059;28;20054;-67
2023/08/07 09:37:13;;;;;;;6.60;5.95;;;;;;;43.19;21.08;98986.25;4937361;28;20050;-68
2023/08/07 09:39:42;;;;;;;6.45;5.85;;;;;;;43.39;20.46;98957.38;4937286;28;20097;-67
2023/08/07 09:45:25;;;;;;;6.00;5.50;;;;;;;42.18;21.37;98961.94;4937266;28;20363;-67
2023/08/07 09:48:03;;;;;;;9.93;5.30;;;;;;;41.26;22.51;98959.38;4937193;28;20050;-69
2023/08/07 09:50:32;;;;;;;6.85;5.82;;;;;;;41.12;22.60;98941.06;4937188;28;20417;-69
2023/08/07 09:52:57;;;;;;;8.73;5.85;;;;;;;41.39;22.39;98946.38;4937228;28;20047;-69
2023/08/07 09:55:24;;;;;;;8.38;5.50;;;;;;;42.44;21.60;98959.91;4939629;28;20049;-67
2023/08/07 09:57:55;;;;;;;13.48;6.03;;;;;;;42.03;21.96;98935.28;4942471;28;20413;-66
2023/08/07 10:00:21;;;;;;;7.80;5.40;;;;;;;42.31;21.58;98944.13;4935964;28;20038;-66
2023/08/07 10:02:49;;;;;;;12.18;6.22;;;;;;;41.67;21.84;98949.66;4934608;28;20413;-66
2023/08/07 10:05:19;;;;;;;7.25;5.63;;;;;;;41.56;21.60;98939.97;4936836;28;20700;-67
2023/08/07 10:07:46;;;;;;;8.38;5.78;;;;;;;41.05;22.34;98923.97;4929692;28;20046;-68
2023/08/07 10:13:04;;;;;;;10.23;5.40;;;;;;;40.50;22.94;98919.72;4935752;28;20043;-67
2023/08/07 10:15:36;;;;;;;7.95;5.03;;;;;;;40.90;23.17;98875.75;4946660;28;20042;-67
2023/08/07 10:18:04;;;;;;;8.07;5.70;;;;;;;41.79;22.81;98884.59;4932407;28;20058;-67
2023/08/07 10:20:30;;;;;;;6.22;5.57;;;;;;;42.01;22.34;98893.63;4933089;28;20061;-67
2023/08/07 10:23:01;;;;;;;6.18;5.53;;;;;;;42.26;21.90;98880.66;4933801;28;20053;-67
2023/08/07 10:25:29;;;;;;;8.73;6.18;;;;;;;41.76;22.24;98880.50;4932242;28;20061;-68
2023/08/07 10:28:00;;;;;;;14.52;5.88;;;;;;;41.63;22.38;98889.94;4935036;28;20453;-68
2023/08/07 10:30:30;;;;;;;9.02;5.70;;;;;;;40.31;23.67;98874.44;4915884;28;20047;-68
2023/08/07 10:32:58;;;;;;;13.05;5.72;;;;;;;38.60;25.23;98870.06;4932725;28;20046;-68
2023/08/07 10:35:25;;;;;;;6.40;5.15;;;;;;;37.29;26.62;98853.84;4916140;28;20051;-68
2023/08/07 10:37:55;;;;;;;8.57;5.13;;;;;;;35.48;29.53;98853.84;4934452;28;20069;-68
2023/08/07 10:40:22;;;;;;;10.40;4.78;;;;;;;34.56;30.35;98883.22;4936467;28;20486;-69
2023/08/07 10:43:20;;;;;;;13.77;5.25;;;;;;;33.96;30.88;98904.47;4936236;28;20438;-67
2023/08/07 10:45:48;;;;;;;10.18;4.50;;;;;;;33.29;31.93;98921.31;4936748;28;20082;-68
2023/08/07 10:51:12;;;;;;;4.97;4.00;;;;;;;31.92;34.16;98884.88;4936251;28;20042;-67
2023/08/07 10:53:50;;;;;;;6.32;3.80;;;;;;;31.64;35.03;98873.09;4939354;28;20047;-67
2023/08/07 10:59:23;;;;;;;6.70;4.25;;;;;;;30.77;36.91;98883.56;4929633;28;20043;-68
2023/08/07 11:01:54;;;;;;;8.55;5.35;;;;;;;30.65;37.10;98843.25;4923241;28;20054;-68
2023/08/07 11:04:25;;;;;;;6.85;4.35;;;;;;;30.32;37.72;98870.91;4939013;28;20046;-67
2023/08/07 11:06:54;;;;;;;6.90;4.30;;;;;;;30.16;38.13;98888.28;4938870;28;20053;-67
2023/08/07 11:09:19;;;;;;;6.20;4.50;;;;;;;30.14;38.51;98874.78;4940044;28;20058;-67
2023/08/07 11:11:47;;;;;;;22.92;5.40;;;;;;;30.08;38.55;98870.31;4940910;28;20043;-67
2023/08/07 11:14:17;;;;;;;6.90;4.30;;;;;;;30.15;38.14;98875.63;4927388;28;20066;-67
2023/08/07 11:16:46;;;;;;;4.53;4.13;;;;;;;30.12;38.63;98871.47;4937196;28;20054;-64
2023/08/07 11:19:14;;;;;;;13.23;4.68;;;;;;;29.80;38.65;98865.75;4938300;28;20050;-68
2023/08/07 11:21:43;;;;;;;13.05;4.63;;;;;;;29.90;38.74;98857.69;4939212;28;20053;-65
2023/08/07 11:24:38;;;;;;;5.65;4.80;;;;;;;29.86;38.55;98863.94;4936439;28;20038;-71
2023/08/07 11:27:04;;;;;;;9.38;4.38;;;;;;;29.67;39.50;98863.41;4936006;28;20050;-67
2023/08/07 11:29:30;;;;;;;8.30;5.35;;;;;;;29.78;38.88;98865.19;4938762;28;20047;-72
2023/08/07 11:31:56;;;;;;;7.88;4.45;;;;;;;29.70;39.46;98867.53;4938737;28;20054;-67
2023/08/07 11:34:25;;;;;;;6.82;4.65;;;;;;;29.61;39.70;98853.41;4939569;28;20043;-69
2023/08/07 11:36:54;;;;;;;8.30;4.43;;;;;;;29.65;39.77;98840.00;4938742;28;20062;-67
2023/08/07 11:39:24;;;;;;;9.75;4.53;;;;;;;29.57;40.18;98841.28;4942379;28;20852;-67
2023/08/07 11:41:58;;;;;;;8.82;4.78;;;;;;;29.55;40.35;98835.19;4938217;28;20046;-65
2023/08/07 11:44:49;;;;;;;6.80;4.32;;;;;;;29.56;40.31;98845.09;4939704;28;20039;-66
2023/08/07 11:47:20;;;;;;;7.70;5.28;;;;;;;29.35;40.98;98846.63;4939643;28;20046;-65
2023/08/07 11:49:48;;;;;;;9.05;4.90;;;;;;;29.35;41.18;98849.38;4938124;28;20039;-66
2023/08/07 11:52:18;;;;;;;7.07;4.63;;;;;;;29.32;41.49;98832.59;4939322;28;20046;-66
2023/08/07 11:54:48;;;;;;;7.45;3.63;;;;;;;29.60;40.20;98824.25;4939073;28;20055;-65
2023/08/07 12:00:15;;;;;;;8.48;5.07;;;;;;;29.44;41.11;98841.63;4939367;28;20046;-68
2023/08/07 12:02:46;;;;;;;5.80;4.25;;;;;;;29.47;40.63;98821.84;4939049;28;20046;-69
2023/08/07 12:05:16;;;;;;;10.35;4.47;;;;;;;29.26;41.12;98829.75;4939081;28;20050;-70
2023/08/07 12:07:41;;;;;;;9.32;4.65;;;;;;;29.40;40.99;98824.78;4938055;28;20560;-69
2023/08/07 12:10:10;;;;;;;8.02;4.50;;;;;;;29.44;40.82;98814.97;4938669;28;20062;-69
2023/08/07 12:12:38;;;;;;;12.02;5.45;;;;;;;29.42;41.51;98838.28;4937524;28;20046;-69
2023/08/07 12:15:11;;;;;;;11.90;5.10;;;;;;;29.27;42.11;98808.63;4934618;28;20069;-67